createdAt,value
2018-07-15T00:01:22.062Z,98083.64
2018-07-15T00:03:51.446Z,98084.79
2018-07-15T00:06:20.132Z,98073.83
2018-07-15T00:08:49.417Z,98076.24
2018-07-15T00:11:18.116Z,98075.19
2018-07-15T00:13:47.136Z,98063.05
2018-07-15T00:16:15.741Z,98068.59
2018-07-15T00:18:44.330Z,98060.26
2018-07-15T00:21:13.063Z,98065.13
2018-07-15T00:23:41.752Z,98062.96
2018-07-15T00:26:11.040Z,98062.40
2018-07-15T00:28:39.635Z,98058.97
2018-07-15T00:31:08.417Z,98061.59
2018-07-15T00:33:37.029Z,98061.84
2018-07-15T00:36:06.447Z,98060.91
2018-07-15T00:38:35.086Z,98058.75
2018-07-15T00:41:03.786Z,98061.12
2018-07-15T00:43:33.034Z,98061.78
2018-07-15T00:46:02.111Z,98059.30
2018-07-15T00:48:31.476Z,98058.41
2018-07-15T00:51:00.793Z,98056.92
2018-07-15T00:53:29.552Z,98062.22
2018-07-15T00:55:58.348Z,98055.80
2018-07-15T00:58:27.241Z,98055.22
2018-07-15T01:01:01.437Z,98056.20
2018-07-15T01:03:30.892Z,98056.20
2018-07-15T01:05:59.836Z,98054.47
2018-07-15T01:08:28.436Z,98061.09
2018-07-15T01:10:57.256Z,98053.81
2018-07-15T01:13:26.507Z,98059.34
2018-07-15T01:15:55.162Z,98057.42
2018-07-15T01:18:23.702Z,98060.80
2018-07-15T01:20:52.318Z,98063.30
2018-07-15T01:23:21.645Z,98056.11
2018-07-15T01:25:50.728Z,98056.12
2018-07-15T01:28:19.252Z,98058.37
2018-07-15T01:30:48.294Z,98057.02
2018-07-15T01:33:17.391Z,98058.13
2018-07-15T01:35:46.042Z,98062.38
2018-07-15T01:38:14.777Z,98064.89
2018-07-15T01:40:43.342Z,98055.78
2018-07-15T01:43:12.143Z,98052.20
2018-07-15T01:45:40.852Z,98055.66
2018-07-15T01:48:09.793Z,98056.67
2018-07-15T01:50:38.361Z,98050.50
2018-07-15T01:53:07.194Z,98049.78
2018-07-15T01:55:35.878Z,98047.65
2018-07-15T01:58:04.746Z,98043.88
2018-07-15T02:00:33.343Z,98045.91
2018-07-15T02:03:02.263Z,98051.34
2018-07-15T02:05:31.708Z,98045.94
2018-07-15T02:08:00.367Z,98045.60
2018-07-15T02:10:29.007Z,98050.02
2018-07-15T02:12:57.562Z,98045.77
2018-07-15T02:15:26.307Z,98049.72
2018-07-15T02:17:55.034Z,98051.80
2018-07-15T02:20:23.751Z,98049.36
2018-07-15T02:22:54.145Z,98049.19
2018-07-15T02:25:23.481Z,98043.27
2018-07-15T02:27:52.148Z,98047.18
2018-07-15T02:30:21.643Z,98051.42
2018-07-15T02:32:51.058Z,98051.20
2018-07-15T02:35:19.609Z,98052.23
2018-07-15T02:37:48.165Z,98054.89
2018-07-15T02:40:17.047Z,98053.36
2018-07-15T02:42:45.815Z,98059.20
2018-07-15T02:45:14.792Z,98055.88
2018-07-15T02:47:43.467Z,98058.75
2018-07-15T02:50:12.225Z,98068.41
2018-07-15T02:52:41.691Z,98057.39
2018-07-15T02:55:11.122Z,98058.75
2018-07-15T02:57:39.846Z,98058.20
2018-07-15T03:00:09.571Z,98060.73
2018-07-15T03:02:38.644Z,98055.88
2018-07-15T03:05:07.294Z,98058.91
2018-07-15T03:07:35.919Z,98057.80
2018-07-15T03:10:04.669Z,98064.81
2018-07-15T03:12:33.476Z,98059.72
2018-07-15T03:15:02.049Z,98054.44
2018-07-15T03:17:30.751Z,98061.23
2018-07-15T03:19:59.325Z,98055.57
2018-07-15T03:22:28.021Z,98056.45
2018-07-15T03:24:56.748Z,98056.93
2018-07-15T03:27:25.378Z,98051.02
2018-07-15T03:29:53.948Z,98048.77
2018-07-15T03:32:22.518Z,98052.19
2018-07-15T03:34:51.018Z,98054.21
2018-07-15T03:37:19.521Z,98049.07
2018-07-15T03:39:48.285Z,98052.92
2018-07-15T03:42:17.062Z,98058.99
2018-07-15T03:44:45.799Z,98053.00
2018-07-15T03:47:15.107Z,98050.54
2018-07-15T03:49:44.027Z,98051.50
2018-07-15T03:52:12.649Z,98053.63
2018-07-15T03:54:41.679Z,98050.36
2018-07-15T03:57:10.494Z,98049.18
2018-07-15T03:59:39.225Z,98049.25
2018-07-15T04:02:08.178Z,98044.83
2018-07-15T04:04:36.937Z,98036.27
2018-07-15T04:07:05.716Z,98034.83
2018-07-15T04:09:34.307Z,98034.67
2018-07-15T04:12:03.032Z,98033.70
2018-07-15T04:14:31.679Z,98032.73
2018-07-15T04:17:00.210Z,98029.27
2018-07-15T04:19:28.786Z,98033.66
2018-07-15T04:21:57.548Z,98038.55
2018-07-15T04:24:27.367Z,98039.33
2018-07-15T04:26:55.966Z,98036.02
2018-07-15T04:29:24.814Z,98039.19
2018-07-15T04:31:53.585Z,98037.36
2018-07-15T04:34:22.323Z,98035.87
2018-07-15T04:36:51.604Z,98035.73
2018-07-15T04:39:20.132Z,98043.95
2018-07-15T04:41:48.952Z,98034.75
2018-07-15T04:44:17.603Z,98043.30
2018-07-15T04:46:47.084Z,98044.92
2018-07-15T04:49:15.633Z,98053.38
2018-07-15T04:51:44.312Z,98045.48
2018-07-15T04:54:12.852Z,98050.66
2018-07-15T04:56:42.401Z,98051.50
2018-07-15T04:59:11.022Z,98054.09
2018-07-15T05:01:42.996Z,98058.15
2018-07-15T05:04:13.411Z,98053.80
2018-07-15T05:06:42.323Z,98058.05
2018-07-15T05:09:11.438Z,98053.94
2018-07-15T05:11:40.000Z,98052.84
2018-07-15T05:14:09.190Z,98055.09
2018-07-15T05:16:38.478Z,98058.74
2018-07-15T05:19:07.092Z,98060.03
2018-07-15T05:21:35.658Z,98056.05
2018-07-15T05:24:04.244Z,98061.06
2018-07-15T05:26:33.085Z,98057.81
2018-07-15T05:29:02.389Z,98067.75
2018-07-15T05:31:31.105Z,98064.27
2018-07-15T05:33:59.802Z,98076.20
2018-07-15T05:36:28.533Z,98070.10
2018-07-15T05:38:57.353Z,98077.05
2018-07-15T05:41:26.354Z,98069.30
2018-07-15T05:43:55.207Z,98064.39
2018-07-15T05:46:23.993Z,98066.14
2018-07-15T05:48:52.593Z,98075.15
2018-07-15T05:51:21.380Z,98069.67
2018-07-15T05:53:50.667Z,98075.20
2018-07-15T05:56:19.227Z,98072.80
2018-07-15T05:58:48.032Z,98073.61
2018-07-15T06:01:16.665Z,98074.61
2018-07-15T06:03:45.228Z,98073.95
2018-07-15T06:06:13.814Z,98077.02
2018-07-15T06:08:44.137Z,98076.59
2018-07-15T06:11:12.718Z,98076.34
2018-07-15T06:13:41.623Z,98064.95
2018-07-15T06:16:11.057Z,98069.52
2018-07-15T06:18:39.813Z,98073.03
2018-07-15T06:21:08.894Z,98078.70
2018-07-15T06:23:37.605Z,98076.19
2018-07-15T06:26:06.364Z,98079.13
2018-07-15T06:28:34.959Z,98079.34
2018-07-15T06:31:04.142Z,98078.58
2018-07-15T06:33:33.179Z,98081.23
2018-07-15T06:36:01.912Z,98078.45
2018-07-15T06:38:30.418Z,98082.66
2018-07-15T06:40:59.085Z,98083.34
2018-07-15T06:43:27.764Z,98082.59
2018-07-15T06:45:56.418Z,98080.16
2018-07-15T06:48:25.041Z,98080.86
2018-07-15T06:50:53.859Z,98079.53
2018-07-15T06:53:23.340Z,98084.12
2018-07-15T06:55:51.979Z,98078.17
2018-07-15T06:58:20.645Z,98075.97
2018-07-15T07:00:49.754Z,98069.06
2018-07-15T07:03:18.398Z,98065.19
2018-07-15T07:05:47.198Z,98065.74
2018-07-15T07:08:15.780Z,98066.90
2018-07-15T07:10:44.378Z,98066.51
2018-07-15T07:13:12.978Z,98069.83
2018-07-15T07:15:41.795Z,98073.44
2018-07-15T07:18:10.478Z,98065.48
2018-07-15T07:20:39.360Z,98068.66
2018-07-15T07:23:07.960Z,98068.50
2018-07-15T07:25:36.874Z,98059.81
2018-07-15T07:28:05.693Z,98061.49
2018-07-15T07:30:34.582Z,98060.47
2018-07-15T07:33:03.546Z,98065.00
2018-07-15T07:35:32.295Z,98061.67
2018-07-15T07:38:01.364Z,98059.33
2018-07-15T07:40:30.109Z,98062.03
2018-07-15T07:42:58.789Z,98056.42
2018-07-15T07:45:27.690Z,98062.28
2018-07-15T07:47:56.488Z,98062.01
2018-07-15T07:50:25.539Z,98057.95
2018-07-15T07:52:55.122Z,98051.30
2018-07-15T07:55:23.785Z,98053.75
2018-07-15T07:57:52.589Z,98045.34
2018-07-15T08:00:21.479Z,98051.42
2018-07-15T08:02:50.859Z,98051.36
2018-07-15T08:05:19.804Z,98047.92
2018-07-15T08:07:49.286Z,98057.33
2018-07-15T08:10:18.236Z,98054.11
2018-07-15T08:12:46.907Z,98045.35
2018-07-15T08:15:15.796Z,98049.55
2018-07-15T08:17:44.609Z,98044.59
2018-07-15T08:20:13.259Z,98049.19
2018-07-15T08:22:42.067Z,98052.53
2018-07-15T08:25:11.845Z,98051.08
2018-07-15T08:27:40.578Z,98048.91
2018-07-15T08:30:20.201Z,98046.20
2018-07-15T08:32:49.103Z,98056.69
2018-07-15T08:35:18.407Z,98056.22
2018-07-15T08:37:47.095Z,98061.25
2018-07-15T08:40:15.885Z,98055.55
2018-07-15T08:42:44.757Z,98051.16
2018-07-15T08:45:13.580Z,98055.80
2018-07-15T08:47:42.355Z,98055.73
2018-07-15T08:50:10.991Z,98060.25
2018-07-15T08:52:39.883Z,98063.47
2018-07-15T08:55:08.805Z,98062.06
2018-07-15T08:57:37.470Z,98056.34
2018-07-15T09:00:06.314Z,98052.22
2018-07-15T09:02:35.888Z,98054.96
2018-07-15T09:05:04.748Z,98056.53
2018-07-15T09:07:34.453Z,98053.77
2018-07-15T09:10:03.254Z,98050.93
2018-07-15T09:12:31.937Z,98048.48
2018-07-15T09:15:01.004Z,98041.27
2018-07-15T09:17:29.784Z,98043.34
2018-07-15T09:19:58.450Z,98034.78
2018-07-15T09:22:27.364Z,98045.98
2018-07-15T09:24:56.020Z,98034.59
2018-07-15T09:27:24.895Z,98035.23
2018-07-15T09:29:53.608Z,98028.38
2018-07-15T09:32:22.591Z,98033.45
2018-07-15T09:34:51.451Z,98030.20
2018-07-15T09:37:20.234Z,98027.05
2018-07-15T09:39:48.910Z,98025.85
2018-07-15T09:42:17.829Z,98022.36
2018-07-15T09:44:46.810Z,98019.80
2018-07-15T09:47:16.134Z,98009.84
2018-07-15T09:49:45.021Z,98001.66
2018-07-15T09:52:13.825Z,98007.48
2018-07-15T09:54:42.589Z,98008.75
2018-07-15T09:57:11.476Z,98011.34
2018-07-15T09:59:40.111Z,98005.05
2018-07-15T10:02:08.911Z,98000.73
2018-07-15T10:04:37.843Z,97987.28
2018-07-15T10:07:06.564Z,97984.95
2018-07-15T10:09:35.440Z,97986.25
2018-07-15T10:12:04.299Z,97987.50
2018-07-15T10:14:33.427Z,97979.20
2018-07-15T10:17:02.386Z,97971.02
2018-07-15T10:19:31.089Z,97967.28
2018-07-15T10:22:07.226Z,97966.22
2018-07-15T10:24:35.913Z,97966.20
2018-07-15T10:27:04.516Z,97959.70
2018-07-15T10:29:33.895Z,97958.50
2018-07-15T10:32:02.824Z,97952.39
2018-07-15T10:34:31.488Z,97947.61
2018-07-15T10:37:00.543Z,97945.59
2018-07-15T10:39:29.173Z,97934.07
2018-07-15T10:41:57.819Z,97931.45
2018-07-15T10:44:26.541Z,97925.11
2018-07-15T10:46:55.386Z,97918.78
2018-07-15T10:49:24.283Z,97921.32
2018-07-15T10:51:53.191Z,97913.41
2018-07-15T10:54:22.128Z,97912.27
2018-07-15T10:56:51.235Z,97917.44
2018-07-15T10:59:20.153Z,97918.20
2018-07-15T11:01:48.969Z,97919.41
2018-07-15T11:04:17.791Z,97917.01
2018-07-15T11:06:46.414Z,97923.72
2018-07-15T11:09:15.328Z,97918.73
2018-07-15T11:11:44.700Z,97924.59
2018-07-15T11:14:13.478Z,97918.65
2018-07-15T11:16:42.227Z,97917.19
2018-07-15T11:19:10.900Z,97912.63
2018-07-15T11:21:39.528Z,97915.11
2018-07-15T11:24:08.545Z,97913.29
2018-07-15T11:26:37.370Z,97912.64
2018-07-15T11:29:06.223Z,97916.09
2018-07-15T11:31:34.904Z,97915.32
2018-07-15T11:34:03.761Z,97923.09
2018-07-15T11:36:32.677Z,97925.22
2018-07-15T11:39:02.241Z,97930.63
2018-07-15T11:41:30.881Z,97938.97
2018-07-15T11:43:59.502Z,97943.16
2018-07-15T11:46:28.479Z,97950.11
2018-07-15T11:48:57.304Z,97951.98
2018-07-15T11:51:26.037Z,97943.90
2018-07-15T11:53:54.766Z,97949.25
2018-07-15T11:56:23.824Z,97932.41
2018-07-15T11:58:52.620Z,97928.96
2018-07-15T12:01:21.330Z,97923.41
2018-07-15T12:03:49.941Z,97926.90
2018-07-15T12:06:18.909Z,97924.90
2018-07-15T12:08:48.283Z,97931.36
2018-07-15T12:11:17.430Z,97935.32
2018-07-15T12:13:46.406Z,97946.13
2018-07-15T12:16:15.296Z,97957.31
2018-07-15T12:18:44.155Z,97988.00
2018-07-15T12:21:13.165Z,98004.37
2018-07-15T12:23:42.095Z,98021.75
2018-07-15T12:26:10.640Z,98025.84
2018-07-15T12:28:40.461Z,98037.16
2018-07-15T12:31:10.645Z,98042.80
2018-07-15T12:33:39.346Z,98025.67
2018-07-15T12:36:09.556Z,98024.77
2018-07-15T12:38:38.720Z,98028.55
2018-07-15T12:41:08.140Z,98037.47
2018-07-15T12:43:37.131Z,98036.02
2018-07-15T12:46:06.546Z,98043.26
2018-07-15T12:48:35.225Z,98044.00
2018-07-15T12:51:04.018Z,98041.17
2018-07-15T12:53:33.836Z,98036.23
2018-07-15T12:56:03.321Z,98023.57
2018-07-15T12:58:32.297Z,98015.23
2018-07-15T13:01:01.851Z,98004.72
2018-07-15T13:03:30.912Z,97987.31
2018-07-15T13:05:59.791Z,97962.25
2018-07-15T13:08:28.711Z,97945.89
2018-07-15T13:10:57.562Z,97946.49
2018-07-15T13:13:26.362Z,97940.17
2018-07-15T13:15:55.278Z,97936.21
2018-07-15T13:18:23.979Z,97930.70
2018-07-15T13:20:52.701Z,97922.41
2018-07-15T13:23:21.677Z,97907.56
2018-07-15T13:25:50.632Z,97908.39
2018-07-15T13:28:19.604Z,97909.34
2018-07-15T13:30:48.422Z,97902.05
2018-07-15T13:33:17.326Z,97902.63
2018-07-15T13:35:46.116Z,97893.34
2018-07-15T13:38:14.780Z,97893.34
2018-07-15T13:40:43.733Z,97902.63
2018-07-15T13:43:12.566Z,97910.33
2018-07-15T13:45:41.274Z,97918.44
2018-07-15T13:48:10.198Z,97924.16
2018-07-15T13:50:39.187Z,97921.99
2018-07-15T13:53:08.325Z,97928.52
2018-07-15T13:55:37.646Z,97928.68
2018-07-15T13:58:06.573Z,97936.91
2018-07-15T14:00:36.198Z,97944.73
2018-07-15T14:03:05.348Z,97950.05
2018-07-15T14:05:33.957Z,97940.38
2018-07-15T14:08:02.976Z,97939.21
2018-07-15T14:10:32.226Z,97951.58
2018-07-15T14:13:00.917Z,97946.91
2018-07-15T14:15:29.840Z,97943.17
2018-07-15T14:17:58.837Z,97944.15
2018-07-15T14:20:27.584Z,97935.24
2018-07-15T14:22:56.260Z,97934.85
2018-07-15T14:25:25.139Z,97936.80
2018-07-15T14:27:53.885Z,97938.82
2018-07-15T14:30:22.973Z,97937.39
2018-07-15T14:32:51.780Z,97930.63
2018-07-15T14:35:20.414Z,97927.47
2018-07-15T14:37:49.200Z,97926.11
2018-07-15T14:40:17.887Z,97927.86
2018-07-15T14:42:46.715Z,97928.86
2018-07-15T14:45:16.061Z,97924.91
2018-07-15T14:47:44.801Z,97916.23
2018-07-15T14:50:14.490Z,97913.86
2018-07-15T14:52:43.312Z,97915.45
2018-07-15T14:55:12.233Z,97918.00
2018-07-15T14:57:41.407Z,97919.31
2018-07-15T15:00:10.697Z,97916.34
2018-07-15T15:02:39.603Z,97921.09
2018-07-15T15:05:08.651Z,97932.78
2018-07-15T15:07:37.336Z,97933.80
2018-07-15T15:10:06.403Z,97936.97
2018-07-15T15:12:35.471Z,97938.55
2018-07-15T15:15:04.336Z,97932.60
2018-07-15T15:17:33.157Z,97922.28
2018-07-15T15:20:01.730Z,97921.70
2018-07-15T15:22:30.701Z,97915.17
2018-07-15T15:24:59.706Z,97911.19
2018-07-15T15:27:28.456Z,97908.42
2018-07-15T15:29:58.687Z,97901.70
2018-07-15T15:32:27.436Z,97904.84
2018-07-15T15:34:56.157Z,97910.36
2018-07-15T15:37:25.213Z,97913.13
2018-07-15T15:39:54.175Z,97905.27
2018-07-15T15:42:23.827Z,97913.78
2018-07-15T15:44:52.822Z,97907.67
2018-07-15T15:47:22.822Z,97916.02
2018-07-15T15:49:52.302Z,97910.66
2018-07-15T15:52:21.407Z,97907.06
2018-07-15T15:54:50.377Z,97912.59
2018-07-15T15:57:19.066Z,97915.52
2018-07-15T15:59:48.171Z,97915.67
2018-07-15T16:02:23.706Z,97908.33
2018-07-15T16:04:52.656Z,97902.77
2018-07-15T16:07:21.499Z,97903.97
2018-07-15T16:09:50.831Z,97899.06
2018-07-15T16:12:19.948Z,97897.53
2018-07-15T16:14:49.196Z,97898.78
2018-07-15T16:17:18.424Z,97901.03
2018-07-15T16:19:47.859Z,97907.18
2018-07-15T16:22:16.798Z,97902.98
2018-07-15T16:24:46.089Z,97901.03
2018-07-15T16:27:15.568Z,97896.52
2018-07-15T16:29:44.249Z,97891.73
2018-07-15T16:32:13.978Z,97889.05
2018-07-15T16:34:43.042Z,97893.08
2018-07-15T16:37:13.266Z,97890.89
2018-07-15T16:39:42.407Z,97896.64
2018-07-15T16:42:11.677Z,97895.67
2018-07-15T16:44:41.932Z,97891.90
2018-07-15T16:47:11.059Z,97882.86
2018-07-15T16:49:40.386Z,97880.92
2018-07-15T16:52:09.223Z,97880.44
2018-07-15T16:54:38.333Z,97874.48
2018-07-15T16:57:07.187Z,97878.64
2018-07-15T16:59:36.170Z,97875.48
2018-07-15T17:02:05.594Z,97875.10
2018-07-15T17:04:34.646Z,97872.79
2018-07-15T17:07:03.682Z,97883.63
2018-07-15T17:09:32.536Z,97891.04
2018-07-15T17:12:01.667Z,97893.19
2018-07-15T17:14:30.852Z,97900.13
2018-07-15T17:16:59.801Z,97906.88
2018-07-15T17:19:29.156Z,97906.73
2018-07-15T17:21:58.551Z,97891.80
2018-07-15T17:24:27.666Z,97893.62
2018-07-15T17:26:56.606Z,97886.17
2018-07-15T17:29:25.534Z,97889.64
2018-07-15T17:31:54.517Z,97900.36
2018-07-15T17:34:23.519Z,97910.68
2018-07-15T17:36:52.434Z,97905.77
2018-07-15T17:39:21.612Z,97918.06
2018-07-15T17:41:50.734Z,97918.14
2018-07-15T17:44:20.213Z,97916.73
2018-07-15T17:46:49.487Z,97924.27
2018-07-15T17:49:19.041Z,97930.67
2018-07-15T17:51:48.057Z,97927.53
2018-07-15T17:54:18.065Z,97925.36
2018-07-15T17:56:47.065Z,97916.26
2018-07-15T17:59:16.019Z,97921.20
2018-07-15T18:01:45.064Z,97922.95
2018-07-15T18:04:14.257Z,97919.80
2018-07-15T18:06:43.353Z,97928.45
2018-07-15T18:09:12.502Z,97928.86
2018-07-15T18:11:41.845Z,97926.41
2018-07-15T18:14:11.062Z,97925.92
2018-07-15T18:16:40.144Z,97932.62
2018-07-15T18:19:09.336Z,97932.16
2018-07-15T18:21:38.706Z,97916.66
2018-07-15T18:24:07.742Z,97922.45
2018-07-15T18:26:36.995Z,97922.75
2018-07-15T18:29:05.962Z,97921.78
2018-07-15T18:31:34.987Z,97919.16
2018-07-15T18:34:04.931Z,97920.44
2018-07-15T18:36:34.019Z,97917.66
2018-07-15T18:39:03.414Z,97918.14
2018-07-15T18:41:32.513Z,97912.61
2018-07-15T18:44:01.249Z,97906.44
2018-07-15T18:46:30.571Z,97902.03
2018-07-15T18:48:59.512Z,97893.27
2018-07-15T18:51:28.373Z,97896.73
2018-07-15T18:53:57.167Z,97889.91
2018-07-15T18:56:26.105Z,97894.42
2018-07-15T18:58:55.252Z,97893.06
2018-07-15T19:01:24.427Z,97896.74
2018-07-15T19:03:53.548Z,97894.59
2018-07-15T19:06:22.857Z,97900.23
2018-07-15T19:08:53.158Z,97898.20
2018-07-15T19:11:23.214Z,97895.54
2018-07-15T19:13:52.410Z,97894.09
2018-07-15T19:16:21.537Z,97892.26
2018-07-15T19:18:50.678Z,97884.44
2018-07-15T19:21:20.057Z,97890.50
2018-07-15T19:23:49.229Z,97884.73
2018-07-15T19:26:18.289Z,97889.52
2018-07-15T19:28:47.495Z,97900.98
2018-07-15T19:31:17.188Z,97894.30
2018-07-15T19:33:46.198Z,97902.64
2018-07-15T19:36:15.382Z,97907.85
2018-07-15T19:38:44.426Z,97922.56
2018-07-15T19:41:13.284Z,97931.03
2018-07-15T19:43:42.989Z,97933.31
2018-07-15T19:46:12.110Z,97940.33
2018-07-15T19:48:40.958Z,97934.13
2018-07-15T19:51:10.251Z,97939.41
2018-07-15T19:53:39.644Z,97950.53
2018-07-15T19:56:08.940Z,97953.05
2018-07-15T19:58:38.349Z,97959.63
2018-07-15T20:01:07.947Z,97954.94
2018-07-15T20:03:36.828Z,97956.31
2018-07-15T20:06:06.083Z,97947.59
2018-07-15T20:08:35.228Z,97952.64
2018-07-15T20:11:04.711Z,97950.90
2018-07-15T20:13:34.087Z,97947.72
2018-07-15T20:16:02.974Z,97945.13
2018-07-15T20:18:32.057Z,97946.34
2018-07-15T20:21:01.359Z,97950.69
2018-07-15T20:23:30.324Z,97956.19
2018-07-15T20:25:59.617Z,97959.27
2018-07-15T20:28:28.809Z,97953.49
2018-07-15T20:30:57.997Z,97950.02
2018-07-15T20:33:26.955Z,97945.03
2018-07-15T20:35:55.760Z,97950.95
2018-07-15T20:38:24.498Z,97956.73
2018-07-15T20:40:53.343Z,97966.33
2018-07-15T20:43:22.352Z,97964.63
2018-07-15T20:45:51.545Z,97955.36
2018-07-15T20:48:20.373Z,97951.52
2018-07-15T20:50:49.274Z,97947.41
2018-07-15T20:53:18.189Z,97951.28
2018-07-15T20:55:47.407Z,97943.66
2018-07-15T20:58:16.514Z,97950.91
2018-07-15T21:00:46.000Z,97958.13
2018-07-15T21:03:17.265Z,97965.17
2018-07-15T21:05:46.436Z,97967.17
2018-07-15T21:08:15.548Z,97961.38
2018-07-15T21:10:44.788Z,97960.58
2018-07-15T21:13:13.870Z,97963.25
2018-07-15T21:15:42.795Z,97974.02
2018-07-15T21:18:11.550Z,97970.12
2018-07-15T21:20:40.495Z,97977.77
2018-07-15T21:23:09.304Z,97983.69
2018-07-15T21:25:38.277Z,97981.08
2018-07-15T21:28:07.290Z,97982.94
2018-07-15T21:30:36.133Z,97977.95
2018-07-15T21:33:04.893Z,97974.53
2018-07-15T21:35:33.926Z,97976.06
2018-07-15T21:38:02.853Z,97971.15
2018-07-15T21:40:31.774Z,97963.16
2018-07-15T21:43:00.695Z,97964.32
2018-07-15T21:45:29.636Z,97962.53
2018-07-15T21:47:58.464Z,97969.67
2018-07-15T21:50:27.352Z,97970.08
2018-07-15T21:52:56.263Z,97963.12
2018-07-15T21:55:24.980Z,97959.48
2018-07-15T21:57:53.992Z,97949.66
2018-07-15T22:00:22.888Z,97949.27
2018-07-15T22:02:52.232Z,97944.97
2018-07-15T22:05:21.134Z,97948.06
2018-07-15T22:08:00.833Z,97957.31
2018-07-15T22:10:34.808Z,97960.06
2018-07-15T22:13:03.745Z,97955.06
2018-07-15T22:15:33.255Z,97954.17
2018-07-15T22:18:02.145Z,97961.46
2018-07-15T22:20:31.014Z,97966.58
2018-07-15T22:22:59.754Z,97962.11
2018-07-15T22:25:28.454Z,97963.68
2018-07-15T22:27:57.428Z,97964.20
2018-07-15T22:30:26.529Z,97959.25
2018-07-15T22:32:55.243Z,97959.41
2018-07-15T22:35:24.169Z,97957.16
2018-07-15T22:37:53.123Z,97969.80
2018-07-15T22:40:21.930Z,97963.07
2018-07-15T22:42:50.642Z,97956.05
2018-07-15T22:45:20.006Z,97965.95
2018-07-15T22:47:49.398Z,97962.48
2018-07-15T22:50:18.368Z,97959.63
2018-07-15T22:52:47.099Z,97953.80
2018-07-15T22:55:15.884Z,97946.48
2018-07-15T22:57:44.749Z,97946.66
2018-07-15T23:00:13.575Z,97944.04
2018-07-15T23:02:42.520Z,97938.01
2018-07-15T23:05:51.623Z,97945.08
2018-07-15T23:08:20.679Z,97944.70
2018-07-15T23:10:50.328Z,97946.95
2018-07-15T23:13:19.418Z,97945.50
2018-07-15T23:15:48.415Z,97947.88
2018-07-15T23:18:16.981Z,97945.15
2018-07-15T23:20:46.597Z,97951.87
2018-07-15T23:23:15.778Z,97949.70
2018-07-15T23:25:44.484Z,97960.23
2018-07-15T23:28:14.759Z,97966.03
2018-07-15T23:30:43.976Z,97971.28
2018-07-15T23:33:14.453Z,97971.17
2018-07-15T23:35:43.025Z,97976.30
2018-07-15T23:38:11.701Z,97976.88
2018-07-15T23:40:40.943Z,97982.45
2018-07-15T23:43:09.553Z,97980.28
2018-07-15T23:45:38.320Z,97980.17
2018-07-15T23:48:07.216Z,97984.52
2018-07-15T23:50:35.849Z,97978.59
2018-07-15T23:53:04.704Z,97978.23
2018-07-15T23:55:34.247Z,97973.56
2018-07-15T23:58:02.920Z,97962.06
